createdAt,value
2022-08-20T00:02:15.621Z,21.41
2022-08-20T00:04:44.736Z,21.39
2022-08-20T00:07:14.595Z,21.37
2022-08-20T00:09:43.749Z,21.35
2022-08-20T00:12:16.750Z,21.32
2022-08-20T00:14:44.958Z,21.30
2022-08-20T00:17:13.362Z,21.28
2022-08-20T00:19:41.796Z,21.28
2022-08-20T00:22:10.288Z,21.30
2022-08-20T00:24:38.769Z,21.30
2022-08-20T00:27:07.240Z,21.31
2022-08-20T00:29:35.781Z,21.33
2022-08-20T00:32:04.595Z,21.33
2022-08-20T00:34:33.008Z,21.34
2022-08-20T00:37:01.509Z,21.34
2022-08-20T00:39:29.911Z,21.36
2022-08-20T00:41:58.295Z,21.36
2022-08-20T00:44:27.383Z,21.37
2022-08-20T00:46:55.881Z,21.38
2022-08-20T00:49:32.638Z,21.40
2022-08-20T00:52:08.216Z,21.41
2022-08-20T00:54:44.560Z,21.42
2022-08-20T00:57:51.230Z,21.45
2022-08-20T01:00:46.480Z,21.47
2022-08-20T01:03:17.837Z,21.49
2022-08-20T01:05:51.906Z,21.51
2022-08-20T01:08:24.343Z,21.52
2022-08-20T01:11:07.648Z,21.53
2022-08-20T01:13:38.917Z,21.54
2022-08-20T01:16:18.347Z,21.55
2022-08-20T01:18:48.808Z,21.55
2022-08-20T01:21:28.602Z,21.54
2022-08-20T01:24:21.272Z,21.53
2022-08-20T01:26:50.829Z,21.52
2022-08-20T01:29:29.607Z,21.50
2022-08-20T01:32:01.636Z,21.48
2022-08-20T01:34:30.481Z,21.44
2022-08-20T01:36:59.576Z,21.41
2022-08-20T01:39:33.017Z,21.40
2022-08-20T01:42:04.315Z,21.38
2022-08-20T01:44:33.797Z,21.34
2022-08-20T01:47:31.461Z,21.32
2022-08-20T01:50:18.105Z,21.31
2022-08-20T01:52:59.487Z,21.28
2022-08-20T01:55:28.347Z,21.25
2022-08-20T01:57:58.162Z,21.20
2022-08-20T02:00:26.786Z,21.17
2022-08-20T02:02:55.265Z,21.13
2022-08-20T02:05:24.786Z,21.10
2022-08-20T02:07:59.032Z,21.06
2022-08-20T02:10:28.252Z,21.03
2022-08-20T02:13:01.916Z,20.99
2022-08-20T02:15:34.430Z,20.96
2022-08-20T02:18:08.971Z,20.95
2022-08-20T02:20:38.171Z,20.93
2022-08-20T02:23:08.173Z,20.91
2022-08-20T02:25:40.447Z,20.91
2022-08-20T02:28:12.286Z,20.90
2022-08-20T02:30:44.815Z,20.87
2022-08-20T02:33:16.300Z,20.84
2022-08-20T02:35:48.167Z,20.80
2022-08-20T02:38:17.189Z,20.77
2022-08-20T02:40:46.972Z,20.72
2022-08-20T02:43:18.128Z,20.67
2022-08-20T02:45:46.647Z,20.65
2022-08-20T02:48:23.628Z,20.61
2022-08-20T02:50:56.897Z,20.57
2022-08-20T02:53:26.428Z,20.56
2022-08-20T02:55:56.217Z,20.55
2022-08-20T02:58:24.861Z,20.55
2022-08-20T03:00:53.998Z,20.54
2022-08-20T03:03:24.571Z,20.54
2022-08-20T03:05:55.876Z,20.54
2022-08-20T03:08:25.825Z,20.55
2022-08-20T03:10:54.884Z,20.55
2022-08-20T03:13:24.803Z,20.54
2022-08-20T03:15:59.034Z,20.54
2022-08-20T03:18:32.326Z,20.53
2022-08-20T03:21:01.363Z,20.53
2022-08-20T03:23:29.840Z,20.53
2022-08-20T03:25:58.795Z,20.53
2022-08-20T03:28:28.311Z,20.53
2022-08-20T03:30:58.150Z,20.52
2022-08-20T03:33:28.087Z,20.51
2022-08-20T03:35:56.574Z,20.50
2022-08-20T03:38:32.237Z,20.49
2022-08-20T03:41:03.478Z,20.49
2022-08-20T03:43:32.729Z,20.49
2022-08-20T03:46:02.473Z,20.48
2022-08-20T03:48:31.025Z,20.45
2022-08-20T03:51:01.149Z,20.44
2022-08-20T03:53:33.023Z,20.43
2022-08-20T03:56:06.084Z,20.43
2022-08-20T03:58:36.337Z,20.43
2022-08-20T04:01:07.308Z,20.42
2022-08-20T04:03:37.508Z,20.43
2022-08-20T04:06:06.156Z,20.43
2022-08-20T04:08:35.148Z,20.41
2022-08-20T04:11:03.686Z,20.42
2022-08-20T04:13:32.281Z,20.44
2022-08-20T04:16:13.358Z,20.48
2022-08-20T04:19:01.634Z,20.52
2022-08-20T04:21:33.312Z,20.56
2022-08-20T04:24:04.708Z,20.62
2022-08-20T04:26:35.597Z,20.67
2022-08-20T04:29:04.755Z,20.74
2022-08-20T04:31:34.089Z,20.79
2022-08-20T04:34:04.647Z,20.85
2022-08-20T04:36:33.135Z,20.91
2022-08-20T04:39:01.696Z,21.00
2022-08-20T04:41:30.133Z,21.07
2022-08-20T04:43:58.629Z,21.14
2022-08-20T04:46:29.132Z,21.20
2022-08-20T04:48:58.147Z,21.26
2022-08-20T04:51:27.189Z,21.32
2022-08-20T04:53:57.494Z,21.38
2022-08-20T04:56:29.488Z,21.44
2022-08-20T04:59:01.012Z,21.50
2022-08-20T05:01:29.592Z,21.55
2022-08-20T05:03:58.707Z,21.59
2022-08-20T05:06:31.478Z,21.64
2022-08-20T05:09:01.071Z,21.68
2022-08-20T05:11:36.099Z,21.73
2022-08-20T05:14:09.381Z,21.79
2022-08-20T05:16:39.605Z,21.84
2022-08-20T05:19:11.618Z,21.90
2022-08-20T05:21:40.648Z,21.92
2022-08-20T05:24:10.665Z,21.95
2022-08-20T05:26:39.280Z,21.99
2022-08-20T05:29:07.749Z,22.03
2022-08-20T05:31:36.284Z,22.08
2022-08-20T05:34:10.421Z,22.12
2022-08-20T05:36:41.827Z,22.16
2022-08-20T05:39:11.231Z,22.21
2022-08-20T05:41:40.456Z,22.28
2022-08-20T05:44:13.515Z,22.32
2022-08-20T05:46:45.067Z,22.36
2022-08-20T05:49:16.795Z,22.43
2022-08-20T05:51:45.312Z,22.45
2022-08-20T05:54:14.471Z,22.49
2022-08-20T05:56:43.324Z,22.51
2022-08-20T05:59:14.352Z,22.60
2022-08-20T06:01:43.420Z,22.67
2022-08-20T06:04:28.768Z,22.76
2022-08-20T06:07:02.477Z,22.88
2022-08-20T06:09:32.894Z,23.02
2022-08-20T06:12:06.278Z,23.14
2022-08-20T06:14:34.998Z,23.26
2022-08-20T06:17:13.517Z,23.40
2022-08-20T06:19:44.510Z,23.56
2022-08-20T06:22:18.717Z,23.69
2022-08-20T06:24:53.649Z,23.86
2022-08-20T06:27:22.660Z,24.02
2022-08-20T06:29:51.650Z,24.19
2022-08-20T06:32:31.802Z,24.32
2022-08-20T06:35:03.658Z,24.46
2022-08-20T06:37:36.654Z,24.48
2022-08-20T06:40:16.508Z,24.54
2022-08-20T06:42:48.468Z,24.57
2022-08-20T06:45:21.140Z,24.54
2022-08-20T06:47:49.668Z,24.58
2022-08-20T06:50:22.585Z,24.54
2022-08-20T06:52:52.898Z,24.51
2022-08-20T06:55:22.477Z,24.51
2022-08-20T06:58:02.458Z,24.45
2022-08-20T07:00:33.552Z,24.39
2022-08-20T07:03:02.852Z,24.41
2022-08-20T07:05:34.669Z,24.47
2022-08-20T07:08:04.484Z,24.52
2022-08-20T07:10:32.877Z,24.61
2022-08-20T07:13:01.416Z,24.73
2022-08-20T07:15:30.740Z,24.92
2022-08-20T07:18:02.019Z,25.08
2022-08-20T07:20:32.110Z,25.26
2022-08-20T07:23:01.333Z,25.41
2022-08-20T07:25:31.969Z,25.59
2022-08-20T07:28:05.566Z,25.74
2022-08-20T07:30:56.033Z,25.87
2022-08-20T07:33:28.752Z,26.02
2022-08-20T07:36:00.139Z,26.16
2022-08-20T07:38:30.831Z,26.32
2022-08-20T07:41:07.513Z,26.51
2022-08-20T07:43:36.637Z,26.70
2022-08-20T07:46:08.587Z,26.83
2022-08-20T07:48:40.187Z,26.91
2022-08-20T07:51:11.235Z,27.01
2022-08-20T07:53:41.207Z,27.10
2022-08-20T07:56:12.955Z,27.20
2022-08-20T07:58:50.454Z,27.17
2022-08-20T08:01:22.366Z,27.06
2022-08-20T08:03:50.950Z,27.06
2022-08-20T08:06:29.330Z,27.06
2022-08-20T08:09:04.648Z,26.98
2022-08-20T08:11:38.025Z,26.94
2022-08-20T08:14:10.121Z,26.87
2022-08-20T08:16:39.372Z,26.86
2022-08-20T08:19:12.208Z,27.02
2022-08-20T08:21:41.645Z,27.27
2022-08-20T08:24:14.368Z,27.41
2022-08-20T08:26:45.183Z,27.48
2022-08-20T08:29:13.690Z,27.51
2022-08-20T08:31:42.476Z,27.61
2022-08-20T08:34:11.863Z,27.70
2022-08-20T08:36:40.686Z,27.79
2022-08-20T08:39:09.119Z,27.96
2022-08-20T08:41:48.230Z,28.11
2022-08-20T08:44:23.618Z,28.26
2022-08-20T08:47:00.801Z,28.47
2022-08-20T08:49:38.069Z,28.64
2022-08-20T08:52:19.941Z,28.76
2022-08-20T08:54:53.379Z,28.97
2022-08-20T08:57:21.881Z,29.08
2022-08-20T09:00:03.924Z,29.19
2022-08-20T09:02:38.999Z,29.33
2022-08-20T09:05:21.286Z,29.38
2022-08-20T09:07:53.139Z,29.38
2022-08-20T09:10:23.559Z,29.32
2022-08-20T09:12:52.557Z,29.43
2022-08-20T09:15:21.556Z,29.56
2022-08-20T09:17:51.038Z,29.60
2022-08-20T09:20:19.657Z,29.55
2022-08-20T09:22:50.284Z,29.51
2022-08-20T09:25:21.143Z,29.53
2022-08-20T09:27:49.590Z,29.50
2022-08-20T09:30:19.565Z,29.50
2022-08-20T09:32:48.812Z,29.53
2022-08-20T09:35:18.205Z,29.61
2022-08-20T09:37:47.167Z,29.60
2022-08-20T09:40:21.066Z,29.69
2022-08-20T09:42:51.091Z,29.80
2022-08-20T09:45:19.882Z,29.98
2022-08-20T09:47:54.854Z,30.19
2022-08-20T09:50:27.828Z,30.29
2022-08-20T09:52:59.562Z,30.33
2022-08-20T09:55:38.464Z,30.37
2022-08-20T09:58:35.337Z,30.43
2022-08-20T10:01:13.727Z,30.66
2022-08-20T10:03:44.736Z,30.69
2022-08-20T10:06:14.943Z,30.69
2022-08-20T10:08:44.143Z,30.78
2022-08-20T10:11:12.660Z,30.92
2022-08-20T10:13:41.343Z,31.06
2022-08-20T10:16:09.777Z,31.08
2022-08-20T10:18:38.414Z,31.13
2022-08-20T10:21:13.218Z,31.20
2022-08-20T10:23:42.157Z,31.33
2022-08-20T10:26:12.608Z,31.44
2022-08-20T10:28:41.163Z,31.59
2022-08-20T10:31:12.398Z,31.24
2022-08-20T10:33:41.741Z,31.09
2022-08-20T10:36:13.364Z,31.21
2022-08-20T10:38:43.237Z,31.32
2022-08-20T10:41:11.930Z,31.46
2022-08-20T10:43:40.500Z,31.67
2022-08-20T10:46:09.332Z,31.92
2022-08-20T10:48:38.488Z,32.02
2022-08-20T10:51:07.034Z,31.88
2022-08-20T10:53:36.224Z,31.79
2022-08-20T10:56:04.769Z,31.87
2022-08-20T10:58:39.328Z,32.13
2022-08-20T11:01:09.040Z,32.22
2022-08-20T11:03:37.523Z,32.01
2022-08-20T11:06:06.239Z,31.88
2022-08-20T11:08:36.055Z,31.91
2022-08-20T11:11:06.168Z,32.20
2022-08-20T11:13:35.782Z,32.24
2022-08-20T11:16:05.168Z,32.32
2022-08-20T11:18:33.724Z,32.39
2022-08-20T11:21:02.329Z,32.46
2022-08-20T11:23:30.752Z,32.54
2022-08-20T11:25:59.552Z,32.50
2022-08-20T11:28:31.877Z,32.54
2022-08-20T11:31:01.976Z,32.69
2022-08-20T11:33:31.048Z,32.83
2022-08-20T11:35:59.408Z,32.79
2022-08-20T11:38:27.804Z,32.70
2022-08-20T11:40:56.434Z,32.67
2022-08-20T11:43:24.889Z,32.61
2022-08-20T11:45:56.429Z,32.63
2022-08-20T11:48:24.944Z,32.61
2022-08-20T11:50:53.504Z,32.56
2022-08-20T11:53:22.363Z,32.50
2022-08-20T11:55:51.139Z,32.48
2022-08-20T11:58:19.600Z,32.49
2022-08-20T12:00:48.220Z,32.70
2022-08-20T12:03:16.865Z,32.86
2022-08-20T12:05:47.138Z,32.76
2022-08-20T12:08:25.261Z,32.74
2022-08-20T12:11:00.457Z,32.83
2022-08-20T12:13:48.373Z,32.96
2022-08-20T12:16:19.432Z,33.09
2022-08-20T12:18:48.825Z,33.01
2022-08-20T12:21:17.828Z,32.85
2022-08-20T12:23:46.326Z,32.53
2022-08-20T12:26:16.869Z,32.20
2022-08-20T12:28:45.415Z,31.91
2022-08-20T12:31:13.874Z,31.72
2022-08-20T12:33:42.349Z,31.50
2022-08-20T12:36:11.298Z,31.31
2022-08-20T12:38:39.724Z,31.11
2022-08-20T12:41:08.538Z,30.89
2022-08-20T12:43:37.092Z,30.72
2022-08-20T12:46:05.636Z,30.52
2022-08-20T12:48:34.041Z,30.35
2022-08-20T12:51:02.530Z,30.25
2022-08-20T12:53:30.949Z,30.17
2022-08-20T12:56:00.070Z,30.11
2022-08-20T12:58:28.585Z,30.02
2022-08-20T13:00:56.969Z,29.94
2022-08-20T13:03:25.387Z,29.91
2022-08-20T13:05:55.327Z,29.88
2022-08-20T13:08:23.889Z,29.84
2022-08-20T13:10:52.319Z,29.81
2022-08-20T13:13:21.246Z,29.78
2022-08-20T13:15:51.315Z,29.74
2022-08-20T13:18:20.667Z,29.66
2022-08-20T13:20:50.022Z,29.57
2022-08-20T13:23:18.474Z,29.53
2022-08-20T13:25:46.876Z,29.49
2022-08-20T13:28:15.419Z,29.41
2022-08-20T13:30:43.884Z,29.34
2022-08-20T13:33:12.299Z,29.30
2022-08-20T13:35:41.021Z,29.26
2022-08-20T13:38:09.412Z,29.17
2022-08-20T13:40:37.880Z,29.13
2022-08-20T13:43:07.550Z,29.08
2022-08-20T13:45:41.305Z,29.05
2022-08-20T13:48:14.984Z,29.00
2022-08-20T13:50:47.366Z,28.98
2022-08-20T13:53:16.709Z,28.94
2022-08-20T13:55:46.849Z,28.93
2022-08-20T13:58:15.421Z,28.91
2022-08-20T14:00:48.444Z,28.89
2022-08-20T14:03:20.000Z,28.87
2022-08-20T14:05:54.416Z,28.71
2022-08-20T14:08:24.501Z,28.37
2022-08-20T14:10:53.027Z,28.07
2022-08-20T14:13:25.120Z,27.89
2022-08-20T14:15:54.517Z,27.75
2022-08-20T14:18:23.345Z,27.60
2022-08-20T14:20:51.819Z,27.45
2022-08-20T14:23:20.400Z,27.33
2022-08-20T14:25:50.345Z,27.23
2022-08-20T14:28:22.433Z,27.13
2022-08-20T14:30:53.025Z,27.06
2022-08-20T14:33:24.342Z,26.97
2022-08-20T14:35:53.412Z,26.88
2022-08-20T14:38:22.541Z,26.82
2022-08-20T14:40:54.284Z,26.79
2022-08-20T14:43:22.991Z,26.73
2022-08-20T14:45:53.752Z,26.71
2022-08-20T14:48:25.636Z,26.65
2022-08-20T14:50:57.275Z,26.55
2022-08-20T14:53:26.264Z,26.43
2022-08-20T14:55:54.849Z,26.32
2022-08-20T14:58:23.352Z,26.14
2022-08-20T15:00:53.612Z,25.93
2022-08-20T15:03:24.182Z,25.76
2022-08-20T15:05:52.586Z,25.65
2022-08-20T15:08:23.216Z,25.55
2022-08-20T15:10:58.431Z,25.48
2022-08-20T15:13:26.926Z,25.42
2022-08-20T15:15:55.617Z,25.37
2022-08-20T15:18:25.425Z,25.31
2022-08-20T15:20:53.969Z,25.24
2022-08-20T15:23:23.168Z,25.18
2022-08-20T15:25:51.693Z,25.12
2022-08-20T15:28:20.238Z,25.07
2022-08-20T15:30:48.683Z,25.03
2022-08-20T15:33:17.159Z,24.97
2022-08-20T15:35:45.729Z,24.94
2022-08-20T15:38:14.196Z,24.89
2022-08-20T15:40:42.687Z,24.83
2022-08-20T15:43:11.235Z,24.79
2022-08-20T15:45:39.671Z,24.73
2022-08-20T15:48:18.836Z,24.69
2022-08-20T15:51:25.984Z,24.62
2022-08-20T15:54:18.510Z,24.56
2022-08-20T15:57:05.551Z,24.48
2022-08-20T15:59:33.940Z,24.40
2022-08-20T16:02:26.002Z,24.31
2022-08-20T16:05:19.165Z,24.22
2022-08-20T16:08:15.600Z,24.12
2022-08-20T16:10:43.953Z,24.04
2022-08-20T16:13:47.808Z,23.96
2022-08-20T16:16:33.305Z,23.88
2022-08-20T16:19:02.376Z,23.81
2022-08-20T16:21:37.681Z,23.78
2022-08-20T16:24:13.794Z,23.73
2022-08-20T16:26:48.527Z,23.68
2022-08-20T16:29:24.496Z,23.61
2022-08-20T16:32:02.204Z,23.55
2022-08-20T16:34:40.675Z,23.49
2022-08-20T16:37:38.362Z,23.42
2022-08-20T16:40:10.013Z,23.32
2022-08-20T16:42:44.492Z,23.26
2022-08-20T16:45:20.595Z,23.17
2022-08-20T16:47:51.179Z,23.09
2022-08-20T16:50:26.975Z,23.02
2022-08-20T16:52:55.675Z,22.94
2022-08-20T16:55:25.433Z,22.87
2022-08-20T16:57:54.889Z,22.84
2022-08-20T17:00:44.844Z,22.80
2022-08-20T17:03:31.524Z,22.74
2022-08-20T17:06:30.819Z,22.68
2022-08-20T17:09:02.529Z,22.61
2022-08-20T17:12:14.090Z,22.55
2022-08-20T17:14:52.861Z,22.49
2022-08-20T17:17:28.184Z,22.45
2022-08-20T17:20:20.020Z,22.39
2022-08-20T17:22:53.894Z,22.33
2022-08-20T17:25:38.356Z,22.28
2022-08-20T17:28:19.795Z,22.23
2022-08-20T17:30:49.970Z,22.19
2022-08-20T17:33:36.664Z,22.16
2022-08-20T17:36:17.290Z,22.13
2022-08-20T17:39:00.901Z,22.07
2022-08-20T17:41:29.327Z,22.05
2022-08-20T17:44:06.942Z,22.02
2022-08-20T17:46:45.771Z,21.98
2022-08-20T17:49:34.828Z,21.95
2022-08-20T17:52:11.652Z,21.93
2022-08-20T17:54:44.601Z,21.90
2022-08-20T17:57:15.531Z,21.88
2022-08-20T18:00:00.896Z,21.83
2022-08-20T18:02:34.919Z,21.78
2022-08-20T18:05:10.307Z,21.74
2022-08-20T18:07:42.299Z,21.70
2022-08-20T18:10:18.568Z,21.67
2022-08-20T18:13:11.605Z,21.62
2022-08-20T18:15:58.419Z,21.58
2022-08-20T18:18:56.859Z,21.53
2022-08-20T18:21:44.765Z,21.48
2022-08-20T18:24:20.853Z,21.46
2022-08-20T18:26:54.253Z,21.44
2022-08-20T18:29:34.192Z,21.43
2022-08-20T18:32:07.486Z,21.41
2022-08-20T18:34:40.439Z,21.37
2022-08-20T18:37:14.709Z,21.33
2022-08-20T18:39:49.288Z,21.30
2022-08-20T18:42:17.539Z,21.29
2022-08-20T18:44:48.417Z,21.27
2022-08-20T18:47:25.635Z,21.23
2022-08-20T18:50:16.492Z,21.19
2022-08-20T18:53:08.509Z,21.13
2022-08-20T18:55:43.724Z,21.10
2022-08-20T18:58:31.104Z,21.07
2022-08-20T19:01:05.125Z,21.02
2022-08-20T19:03:36.359Z,20.98
2022-08-20T19:06:13.999Z,20.91
2022-08-20T19:08:52.734Z,20.84
2022-08-20T19:11:23.904Z,20.80
2022-08-20T19:14:15.453Z,20.76
2022-08-20T19:16:58.451Z,20.69
2022-08-20T19:19:32.234Z,20.62
2022-08-20T19:22:28.395Z,20.58
2022-08-20T19:25:00.046Z,20.54
2022-08-20T19:27:29.730Z,20.50
2022-08-20T19:30:02.708Z,20.47
2022-08-20T19:32:45.161Z,20.44
2022-08-20T19:35:17.872Z,20.40
2022-08-20T19:37:51.479Z,20.35
2022-08-20T19:40:28.730Z,20.29
2022-08-20T19:43:03.228Z,20.23
2022-08-20T19:45:41.117Z,20.18
2022-08-20T19:48:28.499Z,20.15
2022-08-20T19:51:07.038Z,20.10
2022-08-20T19:53:43.159Z,20.06
2022-08-20T19:56:21.806Z,20.01
2022-08-20T19:59:05.534Z,19.96
2022-08-20T20:01:34.921Z,19.91
2022-08-20T20:04:16.765Z,19.87
2022-08-20T20:06:49.262Z,19.82
2022-08-20T20:09:29.891Z,19.80
2022-08-20T20:12:04.092Z,19.77
2022-08-20T20:15:23.744Z,19.71
2022-08-20T20:17:54.009Z,19.66
2022-08-20T20:20:35.234Z,19.62
2022-08-20T20:23:20.678Z,19.61
2022-08-20T20:25:58.182Z,19.60
2022-08-20T20:28:41.939Z,19.56
2022-08-20T20:31:14.772Z,19.54
2022-08-20T20:33:44.454Z,19.54
2022-08-20T20:36:17.095Z,19.55
2022-08-20T20:38:58.144Z,19.55
2022-08-20T20:41:29.129Z,19.55
2022-08-20T20:44:20.605Z,19.54
2022-08-20T20:47:00.565Z,19.55
2022-08-20T20:49:35.966Z,19.54
2022-08-20T20:52:15.052Z,19.51
2022-08-20T20:54:46.288Z,19.49
2022-08-20T20:57:34.246Z,19.48
2022-08-20T21:00:14.561Z,19.46
2022-08-20T21:02:47.633Z,19.43
2022-08-20T21:05:18.041Z,19.40
2022-08-20T21:07:51.477Z,19.39
2022-08-20T21:10:23.357Z,19.39
2022-08-20T21:12:53.428Z,19.39
2022-08-20T21:15:24.458Z,19.39
2022-08-20T21:17:54.972Z,19.38
2022-08-20T21:20:23.405Z,19.38
2022-08-20T21:22:52.047Z,19.36
2022-08-20T21:25:20.741Z,19.34
2022-08-20T21:27:50.945Z,19.31
2022-08-20T21:30:21.422Z,19.30
2022-08-20T21:32:50.802Z,19.30
2022-08-20T21:35:21.186Z,19.30
2022-08-20T21:37:50.929Z,19.30
2022-08-20T21:40:21.695Z,19.31
2022-08-20T21:42:51.338Z,19.32
2022-08-20T21:45:20.279Z,19.34
2022-08-20T21:47:48.995Z,19.35
2022-08-20T21:50:20.380Z,19.36
2022-08-20T21:52:55.483Z,19.36
2022-08-20T21:55:39.789Z,19.37
2022-08-20T21:58:09.027Z,19.37
2022-08-20T22:00:53.765Z,19.36
2022-08-20T22:03:24.013Z,19.36
2022-08-20T22:05:53.133Z,19.36
2022-08-20T22:08:26.062Z,19.35
2022-08-20T22:10:59.503Z,19.35
2022-08-20T22:13:31.888Z,19.36
2022-08-20T22:16:07.283Z,19.36
2022-08-20T22:18:36.533Z,19.35
2022-08-20T22:21:07.872Z,19.34
2022-08-20T22:23:40.131Z,19.33
2022-08-20T22:26:09.103Z,19.31
2022-08-20T22:28:38.790Z,19.31
2022-08-20T22:31:07.881Z,19.29
2022-08-20T22:33:37.087Z,19.27
2022-08-20T22:36:07.180Z,19.25
2022-08-20T22:38:35.557Z,19.23
2022-08-20T22:41:09.430Z,19.21
2022-08-20T22:43:43.412Z,19.19
2022-08-20T22:46:28.831Z,19.15
2022-08-20T22:48:57.847Z,19.11
2022-08-20T22:51:34.624Z,19.08
2022-08-20T22:54:05.952Z,19.04
2022-08-20T22:56:34.484Z,19.02
2022-08-20T22:59:03.720Z,19.00
2022-08-20T23:01:32.450Z,18.99
2022-08-20T23:04:12.668Z,18.96
2022-08-20T23:06:42.224Z,18.95
2022-08-20T23:09:12.810Z,18.93
2022-08-20T23:11:41.691Z,18.90
2022-08-20T23:14:10.295Z,18.88
2022-08-20T23:16:44.845Z,18.86
2022-08-20T23:19:23.005Z,18.84
2022-08-20T23:21:51.916Z,18.80
2022-08-20T23:24:21.131Z,18.77
2022-08-20T23:26:53.050Z,18.74
2022-08-20T23:29:25.834Z,18.73
2022-08-20T23:31:56.133Z,18.71
2022-08-20T23:34:26.624Z,18.71
2022-08-20T23:36:56.773Z,18.69
2022-08-20T23:39:26.408Z,18.68
2022-08-20T23:41:55.428Z,18.67
2022-08-20T23:44:27.579Z,18.66
2022-08-20T23:46:59.638Z,18.65
2022-08-20T23:49:29.647Z,18.63
2022-08-20T23:52:00.818Z,18.62
2022-08-20T23:54:33.103Z,18.60
2022-08-20T23:57:08.090Z,18.59
2022-08-20T23:59:37.140Z,18.57
